sensor_id;sensor_type;location;lat;lon;timestamp;pressure;altitude;pressure_sealevel;temperature;humidity
38400;BME280;24180;42.676;23.320;2024-01-06T00:01:30;94839.22;;;4.89;82.40
38400;BME280;24180;42.676;23.320;2024-01-06T00:03:56;94838.59;;;4.70;82.14
38400;BME280;24180;42.676;23.320;2024-01-06T00:06:21;94835.44;;;4.73;83.18
38400;BME280;24180;42.676;23.320;2024-01-06T00:08:47;94829.72;;;4.90;81.45
38400;BME280;24180;42.676;23.320;2024-01-06T00:11:22;94809.72;;;4.78;82.22
38400;BME280;24180;42.676;23.320;2024-01-06T00:13:47;94808.00;;;4.87;81.67
38400;BME280;24180;42.676;23.320;2024-01-06T00:16:13;94811.53;;;4.78;82.41
38400;BME280;24180;42.676;23.320;2024-01-06T00:18:39;94820.16;;;4.82;82.56
38400;BME280;24180;42.676;23.320;2024-01-06T00:21:04;94836.66;;;4.89;82.47
38400;BME280;24180;42.676;23.320;2024-01-06T00:23:30;94852.69;;;4.95;82.49
38400;BME280;24180;42.676;23.320;2024-01-06T00:25:56;94848.69;;;5.03;81.53
38400;BME280;24180;42.676;23.320;2024-01-06T00:28:21;94829.00;;;4.76;81.58
38400;BME280;24180;42.676;23.320;2024-01-06T00:30:47;94830.59;;;4.85;81.40
38400;BME280;24180;42.676;23.320;2024-01-06T00:33:12;94850.50;;;4.88;81.94
38400;BME280;24180;42.676;23.320;2024-01-06T00:35:38;94848.63;;;4.80;82.64
38400;BME280;24180;42.676;23.320;2024-01-06T00:38:03;94833.09;;;4.63;82.26
38400;BME280;24180;42.676;23.320;2024-01-06T00:40:29;94825.88;;;4.65;82.17
38400;BME280;24180;42.676;23.320;2024-01-06T00:42:54;94842.06;;;4.74;81.74
38400;BME280;24180;42.676;23.320;2024-01-06T00:45:20;94843.97;;;4.82;81.13
38400;BME280;24180;42.676;23.320;2024-01-06T00:47:46;94835.66;;;4.63;81.73
38400;BME280;24180;42.676;23.320;2024-01-06T00:50:11;94828.22;;;4.75;81.61
38400;BME280;24180;42.676;23.320;2024-01-06T00:52:37;94818.44;;;4.77;81.99
38400;BME280;24180;42.676;23.320;2024-01-06T00:55:02;94827.97;;;4.63;82.08
38400;BME280;24180;42.676;23.320;2024-01-06T00:57:28;94825.59;;;4.53;83.58
38400;BME280;24180;42.676;23.320;2024-01-06T00:59:53;94826.16;;;4.50;83.66
38400;BME280;24180;42.676;23.320;2024-01-06T01:02:19;94818.56;;;4.58;83.17
38400;BME280;24180;42.676;23.320;2024-01-06T01:04:44;94823.41;;;4.60;82.69
38400;BME280;24180;42.676;23.320;2024-01-06T01:07:10;94827.97;;;4.49;82.50
38400;BME280;24180;42.676;23.320;2024-01-06T01:09:35;94827.31;;;4.57;82.41
38400;BME280;24180;42.676;23.320;2024-01-06T01:12:01;94835.75;;;4.58;82.04
38400;BME280;24180;42.676;23.320;2024-01-06T01:14:26;94820.41;;;4.44;82.42
38400;BME280;24180;42.676;23.320;2024-01-06T01:16:52;94820.47;;;4.53;81.28
38400;BME280;24180;42.676;23.320;2024-01-06T01:19:17;94820.84;;;4.60;82.27
38400;BME280;24180;42.676;23.320;2024-01-06T01:21:43;94811.28;;;4.52;81.94
38400;BME280;24180;42.676;23.320;2024-01-06T01:24:08;94813.16;;;4.46;83.08
38400;BME280;24180;42.676;23.320;2024-01-06T01:26:34;94818.03;;;4.48;82.70
38400;BME280;24180;42.676;23.320;2024-01-06T01:28:59;94814.88;;;4.37;82.60
38400;BME280;24180;42.676;23.320;2024-01-06T01:31:25;94814.53;;;4.43;83.74
38400;BME280;24180;42.676;23.320;2024-01-06T01:33:50;94807.19;;;4.37;83.36
38400;BME280;24180;42.676;23.320;2024-01-06T01:36:15;94808.72;;;4.24;84.08
38400;BME280;24180;42.676;23.320;2024-01-06T01:38:43;94782.38;;;4.10;83.62
38400;BME280;24180;42.676;23.320;2024-01-06T01:41:08;94797.72;;;4.24;84.79
38400;BME280;24180;42.676;23.320;2024-01-06T01:43:34;94792.88;;;4.36;83.95
38400;BME280;24180;42.676;23.320;2024-01-06T01:45:59;94788.72;;;4.26;83.90
38400;BME280;24180;42.676;23.320;2024-01-06T01:48:25;94792.63;;;4.37;82.87
38400;BME280;24180;42.676;23.320;2024-01-06T01:50:53;94788.53;;;4.36;83.18
38400;BME280;24180;42.676;23.320;2024-01-06T01:53:19;94786.16;;;4.26;84.28
38400;BME280;24180;42.676;23.320;2024-01-06T01:55:46;94784.47;;;4.22;83.85
38400;BME280;24180;42.676;23.320;2024-01-06T01:58:14;94782.94;;;4.34;83.66
38400;BME280;24180;42.676;23.320;2024-01-06T02:00:39;94780.84;;;4.50;82.78
38400;BME280;24180;42.676;23.320;2024-01-06T02:03:05;94783.41;;;4.36;83.92
38400;BME280;24180;42.676;23.320;2024-01-06T02:05:31;94777.06;;;4.34;83.12
38400;BME280;24180;42.676;23.320;2024-01-06T02:07:56;94780.19;;;4.45;83.76
38400;BME280;24180;42.676;23.320;2024-01-06T02:10:22;94778.00;;;4.52;82.90
38400;BME280;24180;42.676;23.320;2024-01-06T02:12:48;94765.66;;;4.54;84.03
38400;BME280;24180;42.676;23.320;2024-01-06T02:15:14;94753.81;;;4.58;82.37
38400;BME280;24180;42.676;23.320;2024-01-06T02:17:40;94749.34;;;4.63;83.25
38400;BME280;24180;42.676;23.320;2024-01-06T02:20:07;94754.16;;;4.65;82.94
38400;BME280;24180;42.676;23.320;2024-01-06T02:22:35;94760.50;;;4.68;82.63
38400;BME280;24180;42.676;23.320;2024-01-06T02:25:01;94748.59;;;4.63;82.38
38400;BME280;24180;42.676;23.320;2024-01-06T02:27:26;94743.38;;;4.54;82.85
38400;BME280;24180;42.676;23.320;2024-01-06T02:29:52;94736.84;;;4.48;82.80
38400;BME280;24180;42.676;23.320;2024-01-06T02:32:17;94723.59;;;4.32;80.66
38400;BME280;24180;42.676;23.320;2024-01-06T02:34:43;94724.16;;;4.29;82.39
38400;BME280;24180;42.676;23.320;2024-01-06T02:37:08;94737.81;;;4.38;81.71
38400;BME280;24180;42.676;23.320;2024-01-06T02:39:34;94732.47;;;4.49;82.88
38400;BME280;24180;42.676;23.320;2024-01-06T02:41:59;94725.72;;;4.53;81.77
38400;BME280;24180;42.676;23.320;2024-01-06T02:44:24;94726.50;;;4.53;82.04
38400;BME280;24180;42.676;23.320;2024-01-06T02:46:50;94729.59;;;4.64;81.23
38400;BME280;24180;42.676;23.320;2024-01-06T02:49:15;94723.88;;;4.45;82.66
38400;BME280;24180;42.676;23.320;2024-01-06T02:51:41;94727.44;;;4.57;82.59
38400;BME280;24180;42.676;23.320;2024-01-06T02:54:06;94708.47;;;4.58;80.44
38400;BME280;24180;42.676;23.320;2024-01-06T02:56:32;94714.50;;;4.62;80.84
38400;BME280;24180;42.676;23.320;2024-01-06T02:58:57;94722.06;;;4.45;82.21
38400;BME280;24180;42.676;23.320;2024-01-06T03:01:23;94700.44;;;4.51;81.50
38400;BME280;24180;42.676;23.320;2024-01-06T03:03:48;94696.81;;;4.52;80.89
38400;BME280;24180;42.676;23.320;2024-01-06T03:06:14;94700.91;;;4.53;81.65
38400;BME280;24180;42.676;23.320;2024-01-06T03:08:39;94701.09;;;4.43;80.51
38400;BME280;24180;42.676;23.320;2024-01-06T03:11:04;94694.56;;;4.51;82.28
38400;BME280;24180;42.676;23.320;2024-01-06T03:13:31;94698.97;;;4.59;81.38
38400;BME280;24180;42.676;23.320;2024-01-06T03:15:56;94704.84;;;4.59;81.39
38400;BME280;24180;42.676;23.320;2024-01-06T03:18:21;94701.72;;;4.62;81.14
38400;BME280;24180;42.676;23.320;2024-01-06T03:20:47;94693.41;;;4.57;80.20
38400;BME280;24180;42.676;23.320;2024-01-06T03:23:12;94685.53;;;4.53;81.45
38400;BME280;24180;42.676;23.320;2024-01-06T03:25:38;94690.75;;;4.48;80.75
38400;BME280;24180;42.676;23.320;2024-01-06T03:28:03;94680.69;;;4.52;78.71
38400;BME280;24180;42.676;23.320;2024-01-06T03:30:29;94694.88;;;4.35;79.73
38400;BME280;24180;42.676;23.320;2024-01-06T03:32:55;94691.81;;;4.33;74.94
38400;BME280;24180;42.676;23.320;2024-01-06T03:35:20;94685.63;;;4.48;77.45
38400;BME280;24180;42.676;23.320;2024-01-06T03:37:46;94686.38;;;4.49;78.12
38400;BME280;24180;42.676;23.320;2024-01-06T03:40:11;94692.75;;;4.51;77.86
38400;BME280;24180;42.676;23.320;2024-01-06T03:42:37;94683.97;;;4.43;77.69
38400;BME280;24180;42.676;23.320;2024-01-06T03:45:03;94680.75;;;4.38;78.67
38400;BME280;24180;42.676;23.320;2024-01-06T03:47:29;94681.31;;;4.35;77.55
38400;BME280;24180;42.676;23.320;2024-01-06T03:49:54;94680.00;;;4.24;78.38
38400;BME280;24180;42.676;23.320;2024-01-06T03:52:19;94681.88;;;4.32;78.49
38400;BME280;24180;42.676;23.320;2024-01-06T03:54:45;94673.47;;;4.31;78.51
38400;BME280;24180;42.676;23.320;2024-01-06T03:57:10;94673.81;;;4.38;78.19
38400;BME280;24180;42.676;23.320;2024-01-06T03:59:36;94681.81;;;4.23;78.39
38400;BME280;24180;42.676;23.320;2024-01-06T04:02:01;94677.25;;;4.20;78.86
38400;BME280;24180;42.676;23.320;2024-01-06T04:04:27;94677.25;;;4.20;78.64
38400;BME280;24180;42.676;23.320;2024-01-06T04:06:52;94685.16;;;4.10;78.75
38400;BME280;24180;42.676;23.320;2024-01-06T04:09:18;94671.47;;;4.14;78.52
38400;BME280;24180;42.676;23.320;2024-01-06T04:11:43;94663.72;;;4.19;79.09
38400;BME280;24180;42.676;23.320;2024-01-06T04:14:09;94680.28;;;4.22;79.40
38400;BME280;24180;42.676;23.320;2024-01-06T04:16:34;94687.78;;;4.18;79.37
38400;BME280;24180;42.676;23.320;2024-01-06T04:19:00;94678.66;;;4.26;78.86
38400;BME280;24180;42.676;23.320;2024-01-06T04:21:25;94663.81;;;4.14;78.06
38400;BME280;24180;42.676;23.320;2024-01-06T04:23:50;94686.56;;;4.16;79.61
38400;BME280;24180;42.676;23.320;2024-01-06T04:26:16;94675.41;;;4.12;78.28
38400;BME280;24180;42.676;23.320;2024-01-06T04:28:41;94683.44;;;4.19;78.85
38400;BME280;24180;42.676;23.320;2024-01-06T04:31:07;94688.63;;;4.14;79.87
38400;BME280;24180;42.676;23.320;2024-01-06T04:33:32;94694.78;;;4.27;77.85
38400;BME280;24180;42.676;23.320;2024-01-06T04:35:58;94695.56;;;4.13;79.04
38400;BME280;24180;42.676;23.320;2024-01-06T04:38:24;94706.34;;;4.24;78.82
38400;BME280;24180;42.676;23.320;2024-01-06T04:40:49;94711.09;;;4.17;79.11
38400;BME280;24180;42.676;23.320;2024-01-06T04:43:15;94692.63;;;4.20;78.66
38400;BME280;24180;42.676;23.320;2024-01-06T04:45:40;94708.19;;;4.10;79.41
38400;BME280;24180;42.676;23.320;2024-01-06T04:48:06;94697.94;;;4.10;79.03
38400;BME280;24180;42.676;23.320;2024-01-06T04:50:32;94691.78;;;4.11;80.37
38400;BME280;24180;42.676;23.320;2024-01-06T04:52:57;94694.84;;;3.99;80.47
38400;BME280;24180;42.676;23.320;2024-01-06T04:55:23;94712.81;;;3.94;79.97
38400;BME280;24180;42.676;23.320;2024-01-06T04:57:49;94706.38;;;3.96;80.78
38400;BME280;24180;42.676;23.320;2024-01-06T05:00:15;94710.44;;;3.70;81.25
38400;BME280;24180;42.676;23.320;2024-01-06T05:02:40;94707.31;;;3.73;81.79
38400;BME280;24180;42.676;23.320;2024-01-06T05:05:06;94701.25;;;3.83;81.92
38400;BME280;24180;42.676;23.320;2024-01-06T05:07:32;94691.03;;;3.83;81.23
38400;BME280;24180;42.676;23.320;2024-01-06T05:09:57;94678.16;;;3.74;81.64
38400;BME280;24180;42.676;23.320;2024-01-06T05:12:23;94679.09;;;3.78;81.21
38400;BME280;24180;42.676;23.320;2024-01-06T05:14:48;94686.47;;;3.66;81.15
38400;BME280;24180;42.676;23.320;2024-01-06T05:17:14;94690.84;;;3.79;80.10
38400;BME280;24180;42.676;23.320;2024-01-06T05:19:39;94682.22;;;3.89;79.63
38400;BME280;24180;42.676;23.320;2024-01-06T05:22:05;94686.41;;;3.85;80.74
38400;BME280;24180;42.676;23.320;2024-01-06T05:24:30;94683.16;;;3.79;76.48
38400;BME280;24180;42.676;23.320;2024-01-06T05:26:56;94659.19;;;3.89;78.48
38400;BME280;24180;42.676;23.320;2024-01-06T05:29:21;94675.78;;;3.91;76.66
38400;BME280;24180;42.676;23.320;2024-01-06T05:31:47;94658.34;;;3.93;77.71
38400;BME280;24180;42.676;23.320;2024-01-06T05:34:14;94651.44;;;3.94;75.95
38400;BME280;24180;42.676;23.320;2024-01-06T05:36:40;94659.84;;;3.94;76.90
38400;BME280;24180;42.676;23.320;2024-01-06T05:39:05;94648.22;;;4.02;75.85
38400;BME280;24180;42.676;23.320;2024-01-06T05:41:37;94673.97;;;4.06;75.10
38400;BME280;24180;42.676;23.320;2024-01-06T05:44:03;94662.41;;;3.94;75.31
38400;BME280;24180;42.676;23.320;2024-01-06T05:46:28;94642.34;;;3.88;75.81
38400;BME280;24180;42.676;23.320;2024-01-06T05:48:54;94664.88;;;4.00;74.71
38400;BME280;24180;42.676;23.320;2024-01-06T05:51:21;94658.63;;;4.06;75.06
38400;BME280;24180;42.676;23.320;2024-01-06T05:53:46;94661.47;;;3.90;75.73
38400;BME280;24180;42.676;23.320;2024-01-06T05:56:12;94663.94;;;3.95;74.88
38400;BME280;24180;42.676;23.320;2024-01-06T05:58:37;94669.63;;;3.79;75.96
38400;BME280;24180;42.676;23.320;2024-01-06T06:01:03;94652.22;;;3.81;75.55
38400;BME280;24180;42.676;23.320;2024-01-06T06:03:29;94643.88;;;3.75;74.91
38400;BME280;24180;42.676;23.320;2024-01-06T06:05:54;94659.78;;;3.72;75.41
38400;BME280;24180;42.676;23.320;2024-01-06T06:08:19;94647.09;;;3.81;75.19
38400;BME280;24180;42.676;23.320;2024-01-06T06:10:45;94657.31;;;3.81;76.80
38400;BME280;24180;42.676;23.320;2024-01-06T06:13:42;94646.72;;;3.73;77.64
38400;BME280;24180;42.676;23.320;2024-01-06T06:16:11;94653.53;;;3.78;77.07
38400;BME280;24180;42.676;23.320;2024-01-06T06:18:38;94655.50;;;3.54;79.25
38400;BME280;24180;42.676;23.320;2024-01-06T06:21:03;94646.63;;;3.65;78.52
38400;BME280;24180;42.676;23.320;2024-01-06T06:23:32;94655.22;;;3.69;77.46
38400;BME280;24180;42.676;23.320;2024-01-06T06:25:58;94653.91;;;3.71;77.17
38400;BME280;24180;42.676;23.320;2024-01-06T06:28:25;94674.28;;;3.63;77.51
38400;BME280;24180;42.676;23.320;2024-01-06T06:30:50;94660.47;;;3.64;78.17
38400;BME280;24180;42.676;23.320;2024-01-06T06:33:16;94655.63;;;3.62;78.10
38400;BME280;24180;42.676;23.320;2024-01-06T06:35:42;94679.19;;;3.73;78.70
38400;BME280;24180;42.676;23.320;2024-01-06T06:38:11;94659.50;;;3.73;78.14
38400;BME280;24180;42.676;23.320;2024-01-06T06:40:36;94646.16;;;3.77;78.15
38400;BME280;24180;42.676;23.320;2024-01-06T06:43:02;94671.63;;;3.82;76.59
38400;BME280;24180;42.676;23.320;2024-01-06T06:45:28;94675.69;;;3.69;79.37
38400;BME280;24180;42.676;23.320;2024-01-06T06:47:53;94658.34;;;3.66;77.82
38400;BME280;24180;42.676;23.320;2024-01-06T06:50:18;94677.19;;;3.56;77.59
38400;BME280;24180;42.676;23.320;2024-01-06T06:52:46;94666.88;;;3.75;76.23
38400;BME280;24180;42.676;23.320;2024-01-06T06:55:11;94665.25;;;3.79;77.38
38400;BME280;24180;42.676;23.320;2024-01-06T06:57:38;94676.94;;;3.71;79.05
38400;BME280;24180;42.676;23.320;2024-01-06T07:00:04;94671.34;;;3.83;76.17
38400;BME280;24180;42.676;23.320;2024-01-06T07:02:30;94641.03;;;3.90;77.37
38400;BME280;24180;42.676;23.320;2024-01-06T07:04:55;94669.53;;;3.84;75.94
38400;BME280;24180;42.676;23.320;2024-01-06T07:07:21;94654.66;;;4.00;74.49
38400;BME280;24180;42.676;23.320;2024-01-06T07:09:46;94658.06;;;4.09;76.18
38400;BME280;24180;42.676;23.320;2024-01-06T07:12:11;94657.84;;;4.19;74.42
38400;BME280;24180;42.676;23.320;2024-01-06T07:14:37;94652.41;;;4.34;73.58
38400;BME280;24180;42.676;23.320;2024-01-06T07:17:03;94663.94;;;4.46;73.20
38400;BME280;24180;42.676;23.320;2024-01-06T07:19:31;94641.72;;;4.55;74.36
38400;BME280;24180;42.676;23.320;2024-01-06T07:21:57;94648.50;;;4.59;73.69
38400;BME280;24180;42.676;23.320;2024-01-06T07:24:22;94648.34;;;4.56;73.73
38400;BME280;24180;42.676;23.320;2024-01-06T07:26:47;94658.13;;;4.54;75.13
38400;BME280;24180;42.676;23.320;2024-01-06T07:29:13;94646.47;;;4.48;74.20
38400;BME280;24180;42.676;23.320;2024-01-06T07:31:38;94648.81;;;4.58;74.83
38400;BME280;24180;42.676;23.320;2024-01-06T07:34:04;94660.69;;;4.54;74.76
38400;BME280;24180;42.676;23.320;2024-01-06T07:36:29;94635.19;;;4.49;74.39
38400;BME280;24180;42.676;23.320;2024-01-06T07:38:55;94653.59;;;4.51;74.88
38400;BME280;24180;42.676;23.320;2024-01-06T07:41:21;94652.09;;;4.36;76.25
38400;BME280;24180;42.676;23.320;2024-01-06T07:43:46;94637.75;;;4.49;75.30
38400;BME280;24180;42.676;23.320;2024-01-06T07:46:12;94637.88;;;4.43;75.81
38400;BME280;24180;42.676;23.320;2024-01-06T07:48:37;94637.06;;;4.57;75.04
38400;BME280;24180;42.676;23.320;2024-01-06T07:51:03;94644.84;;;4.52;75.49
38400;BME280;24180;42.676;23.320;2024-01-06T07:53:29;94653.28;;;4.75;74.46
38400;BME280;24180;42.676;23.320;2024-01-06T07:55:54;94642.44;;;4.69;75.57
38400;BME280;24180;42.676;23.320;2024-01-06T07:58:20;94650.22;;;4.86;74.88
38400;BME280;24180;42.676;23.320;2024-01-06T08:00:47;94653.03;;;4.85;75.43
38400;BME280;24180;42.676;23.320;2024-01-06T08:03:12;94635.41;;;4.83;74.54
38400;BME280;24180;42.676;23.320;2024-01-06T08:05:38;94644.84;;;4.97;73.41
38400;BME280;24180;42.676;23.320;2024-01-06T08:08:04;94642.50;;;5.09;72.99
38400;BME280;24180;42.676;23.320;2024-01-06T08:10:30;94663.16;;;5.12;71.53
38400;BME280;24180;42.676;23.320;2024-01-06T08:12:56;94663.63;;;5.15;72.00
38400;BME280;24180;42.676;23.320;2024-01-06T08:15:22;94647.53;;;5.23;71.38
38400;BME280;24180;42.676;23.320;2024-01-06T08:17:47;94663.22;;;5.21;73.25
38400;BME280;24180;42.676;23.320;2024-01-06T08:20:13;94644.97;;;5.23;72.05
38400;BME280;24180;42.676;23.320;2024-01-06T08:22:38;94614.72;;;5.33;70.86
38400;BME280;24180;42.676;23.320;2024-01-06T08:25:04;94643.69;;;5.34;71.03
38400;BME280;24180;42.676;23.320;2024-01-06T08:27:31;94648.47;;;5.27;72.74
38400;BME280;24180;42.676;23.320;2024-01-06T08:29:57;94650.03;;;5.45;71.45
38400;BME280;24180;42.676;23.320;2024-01-06T08:32:22;94662.69;;;5.42;71.99
38400;BME280;24180;42.676;23.320;2024-01-06T08:34:48;94628.34;;;5.51;71.65
38400;BME280;24180;42.676;23.320;2024-01-06T08:37:13;94632.31;;;5.66;70.40
38400;BME280;24180;42.676;23.320;2024-01-06T08:39:39;94647.78;;;5.44;70.80
38400;BME280;24180;42.676;23.320;2024-01-06T08:42:05;94638.22;;;5.67;69.12
38400;BME280;24180;42.676;23.320;2024-01-06T08:44:30;94645.78;;;5.80;68.74
38400;BME280;24180;42.676;23.320;2024-01-06T08:46:56;94639.31;;;5.92;68.48
38400;BME280;24180;42.676;23.320;2024-01-06T08:49:21;94655.69;;;6.04;68.24
38400;BME280;24180;42.676;23.320;2024-01-06T08:51:47;94630.63;;;6.10;68.23
38400;BME280;24180;42.676;23.320;2024-01-06T08:54:12;94651.03;;;6.07;68.89
38400;BME280;24180;42.676;23.320;2024-01-06T08:56:38;94648.91;;;6.17;68.33
38400;BME280;24180;42.676;23.320;2024-01-06T08:59:04;94635.03;;;6.27;68.62
38400;BME280;24180;42.676;23.320;2024-01-06T09:01:29;94644.69;;;6.21;69.20
38400;BME280;24180;42.676;23.320;2024-01-06T09:03:56;94620.38;;;6.36;67.43
38400;BME280;24180;42.676;23.320;2024-01-06T09:06:23;94639.41;;;6.26;69.27
38400;BME280;24180;42.676;23.320;2024-01-06T09:08:48;94624.75;;;6.36;68.20
38400;BME280;24180;42.676;23.320;2024-01-06T09:11:14;94603.47;;;6.35;68.37
38400;BME280;24180;42.676;23.320;2024-01-06T09:13:39;94626.28;;;6.19;68.53
38400;BME280;24180;42.676;23.320;2024-01-06T09:16:05;94594.09;;;6.48;68.25
38400;BME280;24180;42.676;23.320;2024-01-06T09:18:30;94583.31;;;6.72;67.91
38400;BME280;24180;42.676;23.320;2024-01-06T09:20:57;94626.72;;;6.65;67.93
38400;BME280;24180;42.676;23.320;2024-01-06T09:23:22;94582.72;;;6.66;67.60
38400;BME280;24180;42.676;23.320;2024-01-06T09:25:48;94627.47;;;6.48;68.38
38400;BME280;24180;42.676;23.320;2024-01-06T09:28:17;94549.66;;;6.56;68.62
38400;BME280;24180;42.676;23.320;2024-01-06T09:30:43;94607.69;;;6.40;69.31
38400;BME280;24180;42.676;23.320;2024-01-06T09:33:09;94591.63;;;6.60;68.13
38400;BME280;24180;42.676;23.320;2024-01-06T09:35:34;94577.16;;;6.64;68.56
38400;BME280;24180;42.676;23.320;2024-01-06T09:38:00;94578.31;;;6.75;68.30
38400;BME280;24180;42.676;23.320;2024-01-06T09:40:25;94567.44;;;6.79;68.94
38400;BME280;24180;42.676;23.320;2024-01-06T09:42:51;94580.56;;;6.86;67.75
38400;BME280;24180;42.676;23.320;2024-01-06T09:45:19;94586.16;;;6.79;68.84
38400;BME280;24180;42.676;23.320;2024-01-06T09:47:49;94550.66;;;6.81;67.20
38400;BME280;24180;42.676;23.320;2024-01-06T09:50:18;94566.81;;;6.90;68.03
38400;BME280;24180;42.676;23.320;2024-01-06T09:52:45;94567.44;;;6.79;67.94
38400;BME280;24180;42.676;23.320;2024-01-06T09:55:18;94550.69;;;7.11;68.39
38400;BME280;24180;42.676;23.320;2024-01-06T09:57:48;94538.25;;;7.21;66.50
38400;BME280;24180;42.676;23.320;2024-01-06T10:00:14;94552.88;;;7.30;65.70
38400;BME280;24180;42.676;23.320;2024-01-06T10:02:39;94548.47;;;7.39;66.38
38400;BME280;24180;42.676;23.320;2024-01-06T10:05:06;94552.41;;;7.36;65.90
38400;BME280;24180;42.676;23.320;2024-01-06T10:07:32;94540.34;;;7.28;66.10
38400;BME280;24180;42.676;23.320;2024-01-06T10:09:58;94540.75;;;7.39;65.75
38400;BME280;24180;42.676;23.320;2024-01-06T10:12:26;94526.38;;;7.38;65.30
38400;BME280;24180;42.676;23.320;2024-01-06T10:14:53;94511.94;;;7.45;65.65
38400;BME280;24180;42.676;23.320;2024-01-06T10:17:18;94536.44;;;7.22;66.83
38400;BME280;24180;42.676;23.320;2024-01-06T10:19:47;94526.88;;;7.31;66.21
38400;BME280;24180;42.676;23.320;2024-01-06T10:22:14;94497.19;;;7.34;66.49
38400;BME280;24180;42.676;23.320;2024-01-06T10:24:40;94509.25;;;7.12;66.37
38400;BME280;24180;42.676;23.320;2024-01-06T10:27:06;94518.34;;;7.10;66.53
38400;BME280;24180;42.676;23.320;2024-01-06T10:29:32;94494.94;;;7.32;66.12
38400;BME280;24180;42.676;23.320;2024-01-06T10:31:58;94486.19;;;7.54;65.33
38400;BME280;24180;42.676;23.320;2024-01-06T10:34:23;94505.81;;;7.59;65.15
38400;BME280;24180;42.676;23.320;2024-01-06T10:36:50;94493.59;;;7.77;64.79
38400;BME280;24180;42.676;23.320;2024-01-06T10:39:18;94479.63;;;7.99;62.98
38400;BME280;24180;42.676;23.320;2024-01-06T10:41:44;94483.41;;;8.01;64.13
38400;BME280;24180;42.676;23.320;2024-01-06T10:44:11;94488.22;;;8.24;63.96
38400;BME280;24180;42.676;23.320;2024-01-06T10:46:38;94462.25;;;8.29;62.90
38400;BME280;24180;42.676;23.320;2024-01-06T10:49:05;94481.63;;;8.47;63.70
38400;BME280;24180;42.676;23.320;2024-01-06T10:51:34;94459.34;;;8.64;61.96
38400;BME280;24180;42.676;23.320;2024-01-06T10:54:01;94457.59;;;8.68;61.98
38400;BME280;24180;42.676;23.320;2024-01-06T10:56:35;94460.97;;;8.68;60.17
38400;BME280;24180;42.676;23.320;2024-01-06T10:59:03;94455.91;;;8.72;60.71
38400;BME280;24180;42.676;23.320;2024-01-06T11:01:29;94454.94;;;8.76;60.26
38400;BME280;24180;42.676;23.320;2024-01-06T11:03:55;94453.97;;;8.93;61.55
38400;BME280;24180;42.676;23.320;2024-01-06T11:06:21;94447.84;;;8.98;60.47
38400;BME280;24180;42.676;23.320;2024-01-06T11:09:19;94422.06;;;9.10;59.62
38400;BME280;24180;42.676;23.320;2024-01-06T11:11:47;94430.53;;;9.11;59.12
38400;BME280;24180;42.676;23.320;2024-01-06T11:14:24;94438.09;;;9.03;56.89
38400;BME280;24180;42.676;23.320;2024-01-06T11:16:52;94439.03;;;9.23;57.92
38400;BME280;24180;42.676;23.320;2024-01-06T11:22:40;94419.75;;;9.45;56.58
38400;BME280;24180;42.676;23.320;2024-01-06T11:25:07;94415.31;;;9.46;55.38
38400;BME280;24180;42.676;23.320;2024-01-06T11:27:34;94426.38;;;9.59;56.48
38400;BME280;24180;42.676;23.320;2024-01-06T11:30:03;94389.25;;;9.35;54.16
38400;BME280;24180;42.676;23.320;2024-01-06T11:32:33;94378.75;;;9.44;55.25
38400;BME280;24180;42.676;23.320;2024-01-06T11:35:05;94405.03;;;9.34;55.70
38400;BME280;24180;42.676;23.320;2024-01-06T11:42:44;94394.81;;;9.37;54.85
38400;BME280;24180;42.676;23.320;2024-01-06T11:45:09;94368.69;;;9.39;54.98
38400;BME280;24180;42.676;23.320;2024-01-06T11:47:35;94339.53;;;9.66;56.77
38400;BME280;24180;42.676;23.320;2024-01-06T11:50:01;94381.19;;;9.24;56.55
38400;BME280;24180;42.676;23.320;2024-01-06T11:52:31;94358.84;;;9.28;55.31
38400;BME280;24180;42.676;23.320;2024-01-06T11:54:57;94351.81;;;9.41;55.96
38400;BME280;24180;42.676;23.320;2024-01-06T11:57:25;94355.50;;;9.56;54.72
38400;BME280;24180;42.676;23.320;2024-01-06T11:59:51;94335.59;;;9.57;54.95
38400;BME280;24180;42.676;23.320;2024-01-06T12:02:18;94358.72;;;9.53;56.14
38400;BME280;24180;42.676;23.320;2024-01-06T12:04:50;94330.44;;;9.57;54.79
38400;BME280;24180;42.676;23.320;2024-01-06T12:07:17;94338.28;;;9.76;56.47
38400;BME280;24180;42.676;23.320;2024-01-06T12:09:42;94331.06;;;9.82;56.06
38400;BME280;24180;42.676;23.320;2024-01-06T12:12:08;94320.00;;;9.97;55.42
38400;BME280;24180;42.676;23.320;2024-01-06T12:14:40;94294.59;;;9.83;55.74
38400;BME280;24180;42.676;23.320;2024-01-06T12:17:06;94297.19;;;9.99;55.56
38400;BME280;24180;42.676;23.320;2024-01-06T12:19:32;94282.28;;;9.76;55.78
38400;BME280;24180;42.676;23.320;2024-01-06T12:21:58;94306.50;;;9.44;56.62
38400;BME280;24180;42.676;23.320;2024-01-06T12:24:27;94322.75;;;9.44;57.29
38400;BME280;24180;42.676;23.320;2024-01-06T12:26:55;94319.28;;;9.52;56.61
38400;BME280;24180;42.676;23.320;2024-01-06T12:29:22;94332.34;;;9.60;56.85
38400;BME280;24180;42.676;23.320;2024-01-06T12:31:47;94325.31;;;9.44;57.22
38400;BME280;24180;42.676;23.320;2024-01-06T12:34:13;94324.88;;;9.54;57.00
38400;BME280;24180;42.676;23.320;2024-01-06T12:36:40;94326.94;;;9.49;57.63
38400;BME280;24180;42.676;23.320;2024-01-06T12:39:10;94334.16;;;9.43;57.27
38400;BME280;24180;42.676;23.320;2024-01-06T12:41:45;94325.63;;;9.27;57.51
38400;BME280;24180;42.676;23.320;2024-01-06T12:44:10;94333.72;;;9.13;60.58
38400;BME280;24180;42.676;23.320;2024-01-06T12:46:36;94298.88;;;9.19;59.53
38400;BME280;24180;42.676;23.320;2024-01-06T12:49:02;94284.47;;;9.18;58.84
38400;BME280;24180;42.676;23.320;2024-01-06T12:51:28;94291.94;;;9.07;59.50
38400;BME280;24180;42.676;23.320;2024-01-06T12:53:54;94289.72;;;9.22;58.24
38400;BME280;24180;42.676;23.320;2024-01-06T12:56:19;94290.81;;;9.21;58.14
38400;BME280;24180;42.676;23.320;2024-01-06T12:58:45;94295.19;;;9.32;60.06
38400;BME280;24180;42.676;23.320;2024-01-06T13:01:11;94298.47;;;9.45;58.22
38400;BME280;24180;42.676;23.320;2024-01-06T13:03:36;94287.41;;;9.61;57.31